sensor_id;sensor_type;location;lat;lon;timestamp;pressure;altitude;pressure_sealevel;temperature;humidity
14343;BME280;7255;53.596;9.960;2022-07-12T00:02:17;102221.75;;;14.39;nan
14343;BME280;7255;53.596;9.960;2022-07-12T00:04:44;102218.84;;;14.34;nan
14343;BME280;7255;53.596;9.960;2022-07-12T00:07:10;102216.81;;;14.22;nan
14343;BME280;7255;53.596;9.960;2022-07-12T00:09:37;102216.00;;;14.29;nan
14343;BME280;7255;53.596;9.960;2022-07-12T00:12:05;102201.47;;;14.16;nan
14343;BME280;7255;53.596;9.960;2022-07-12T00:14:31;102198.56;;;14.11;nan
14343;BME280;7255;53.596;9.960;2022-07-12T00:16:58;102207.69;;;14.10;nan
14343;BME280;7255;53.596;9.960;2022-07-12T00:19:25;102199.84;;;14.02;nan
14343;BME280;7255;53.596;9.960;2022-07-12T00:21:51;102185.25;;;14.10;nan
14343;BME280;7255;53.596;9.960;2022-07-12T00:24:18;102191.06;;;14.13;nan
14343;BME280;7255;53.596;9.960;2022-07-12T00:26:44;102184.44;;;14.09;nan
14343;BME280;7255;53.596;9.960;2022-07-12T00:29:11;102186.94;;;14.04;nan
14343;BME280;7255;53.596;9.960;2022-07-12T00:31:38;102184.88;;;13.99;nan
14343;BME280;7255;53.596;9.960;2022-07-12T00:34:04;102186.94;;;13.97;nan
14343;BME280;7255;53.596;9.960;2022-07-12T00:36:31;102175.34;;;13.83;nan
14343;BME280;7255;53.596;9.960;2022-07-12T00:38:57;102166.19;;;13.84;nan
14343;BME280;7255;53.596;9.960;2022-07-12T00:41:23;102166.19;;;13.91;nan
14343;BME280;7255;53.596;9.960;2022-07-12T00:43:50;102167.47;;;13.82;nan
14343;BME280;7255;53.596;9.960;2022-07-12T00:46:21;102171.22;;;13.74;nan
14343;BME280;7255;53.596;9.960;2022-07-12T00:48:48;102172.47;;;13.65;nan
14343;BME280;7255;53.596;9.960;2022-07-12T00:51:16;102176.22;;;13.64;nan
14343;BME280;7255;53.596;9.960;2022-07-12T00:53:42;102172.47;;;13.58;nan
14343;BME280;7255;53.596;9.960;2022-07-12T00:56:09;102171.66;;;13.58;nan
14343;BME280;7255;53.596;9.960;2022-07-12T00:58:35;102162.94;;;13.56;nan
14343;BME280;7255;53.596;9.960;2022-07-12T01:01:01;102165.44;;;13.51;nan
14343;BME280;7255;53.596;9.960;2022-07-12T01:03:29;102167.53;;;13.48;nan
14343;BME280;7255;53.596;9.960;2022-07-12T01:05:56;102167.53;;;13.48;nan
14343;BME280;7255;53.596;9.960;2022-07-12T01:08:23;102168.75;;;13.53;nan
14343;BME280;7255;53.596;9.960;2022-07-12T01:10:49;102171.66;;;13.58;nan
14343;BME280;7255;53.596;9.960;2022-07-12T01:13:16;102165.41;;;13.64;nan
14343;BME280;7255;53.596;9.960;2022-07-12T01:15:43;102168.34;;;13.56;nan
14343;BME280;7255;53.596;9.960;2022-07-12T01:18:10;102169.16;;;13.50;nan
14343;BME280;7255;53.596;9.960;2022-07-12T01:20:38;102160.03;;;13.44;nan
14343;BME280;7255;53.596;9.960;2022-07-12T01:23:06;102165.00;;;13.40;nan
14343;BME280;7255;53.596;9.960;2022-07-12T01:25:34;102160.88;;;13.38;nan
14343;BME280;7255;53.596;9.960;2022-07-12T01:28:01;102162.97;;;13.36;nan
14343;BME280;7255;53.596;9.960;2022-07-12T01:30:28;102162.09;;;13.35;nan
14343;BME280;7255;53.596;9.960;2022-07-12T01:32:54;102162.53;;;13.32;nan
14343;BME280;7255;53.596;9.960;2022-07-12T01:35:21;102159.59;;;13.27;nan
14343;BME280;7255;53.596;9.960;2022-07-12T01:37:48;102155.87;;;13.28;nan
14343;BME280;7255;53.596;9.960;2022-07-12T01:40:16;102154.59;;;13.24;nan
14343;BME280;7255;53.596;9.960;2022-07-12T01:42:43;102148.81;;;13.14;nan
14343;BME280;7255;53.596;9.960;2022-07-12T01:45:10;102148.37;;;13.10;nan
14343;BME280;7255;53.596;9.960;2022-07-12T01:47:38;102148.37;;;13.17;nan
14343;BME280;7255;53.596;9.960;2022-07-12T01:50:06;102160.03;;;13.17;nan
14343;BME280;7255;53.596;9.960;2022-07-12T01:52:33;102166.66;;;13.15;nan
14343;BME280;7255;53.596;9.960;2022-07-12T01:55:00;102162.09;;;13.08;nan
14343;BME280;7255;53.596;9.960;2022-07-12T01:57:28;102146.28;;;13.05;nan
14343;BME280;7255;53.596;9.960;2022-07-12T01:59:57;102145.06;;;13.01;nan
14343;BME280;7255;53.596;9.960;2022-07-12T02:02:25;102149.63;;;12.94;nan
14343;BME280;7255;53.596;9.960;2022-07-12T02:04:53;102146.28;;;12.92;nan
14343;BME280;7255;53.596;9.960;2022-07-12T02:07:19;102157.06;;;12.85;nan
14343;BME280;7255;53.596;9.960;2022-07-12T02:09:45;102162.47;;;12.85;nan
14343;BME280;7255;53.596;9.960;2022-07-12T02:12:12;102162.03;;;12.82;nan
14343;BME280;7255;53.596;9.960;2022-07-12T02:14:39;102163.72;;;12.83;nan
14343;BME280;7255;53.596;9.960;2022-07-12T02:17:05;102165.37;;;12.90;nan
14343;BME280;7255;53.596;9.960;2022-07-12T02:19:32;102167.88;;;12.92;nan
14343;BME280;7255;53.596;9.960;2022-07-12T02:21:58;102164.53;;;12.97;nan
14343;BME280;7255;53.596;9.960;2022-07-12T02:24:24;102172.87;;;12.95;nan
14343;BME280;7255;53.596;9.960;2022-07-12T02:26:51;102170.78;;;12.97;nan
14343;BME280;7255;53.596;9.960;2022-07-12T02:29:17;102171.63;;;12.98;nan
14343;BME280;7255;53.596;9.960;2022-07-12T02:31:44;102171.63;;;12.98;nan
14343;BME280;7255;53.596;9.960;2022-07-12T02:34:11;102173.72;;;13.02;nan
14343;BME280;7255;53.596;9.960;2022-07-12T02:36:37;102173.72;;;13.02;nan
14343;BME280;7255;53.596;9.960;2022-07-12T02:39:03;102181.16;;;13.00;nan
14343;BME280;7255;53.596;9.960;2022-07-12T02:41:30;102182.37;;;12.91;nan
14343;BME280;7255;53.596;9.960;2022-07-12T02:43:57;102186.97;;;13.04;nan
14343;BME280;7255;53.596;9.960;2022-07-12T02:46:24;102174.12;;;13.06;nan
14343;BME280;7255;53.596;9.960;2022-07-12T02:48:52;102192.78;;;12.94;nan
14343;BME280;7255;53.596;9.960;2022-07-12T02:51:18;102201.50;;;12.96;nan
14343;BME280;7255;53.596;9.960;2022-07-12T02:53:45;102198.19;;;13.07;nan
14343;BME280;7255;53.596;9.960;2022-07-12T02:56:11;102204.03;;;13.18;nan
14343;BME280;7255;53.596;9.960;2022-07-12T02:58:38;102213.13;;;13.03;nan
14343;BME280;7255;53.596;9.960;2022-07-12T03:01:04;102216.84;;;12.89;nan
14343;BME280;7255;53.596;9.960;2022-07-12T03:03:30;102213.13;;;13.03;nan
14343;BME280;7255;53.596;9.960;2022-07-12T03:05:58;102214.78;;;12.98;nan
14343;BME280;7255;53.596;9.960;2022-07-12T03:08:24;102212.72;;;12.93;nan
14343;BME280;7255;53.596;9.960;2022-07-12T03:10:51;102221.41;;;12.88;nan
14343;BME280;7255;53.596;9.960;2022-07-12T03:13:18;102237.56;;;12.82;nan
14343;BME280;7255;53.596;9.960;2022-07-12T03:15:44;102245.06;;;12.86;nan
14343;BME280;7255;53.596;9.960;2022-07-12T03:18:11;102245.88;;;12.87;nan
14343;BME280;7255;53.596;9.960;2022-07-12T03:20:38;102247.56;;;12.88;nan
14343;BME280;7255;53.596;9.960;2022-07-12T03:23:05;102238.88;;;12.99;nan
14343;BME280;7255;53.596;9.960;2022-07-12T03:25:33;102253.44;;;13.25;nan
14343;BME280;7255;53.596;9.960;2022-07-12T03:27:59;102246.84;;;13.34;nan
14343;BME280;7255;53.596;9.960;2022-07-12T03:30:25;102252.25;;;13.34;nan
14343;BME280;7255;53.596;9.960;2022-07-12T03:32:52;102254.69;;;13.29;nan
14343;BME280;7255;53.596;9.960;2022-07-12T03:35:18;102252.66;;;13.38;nan
14343;BME280;7255;53.596;9.960;2022-07-12T03:37:46;102256.97;;;13.19;nan
14343;BME280;7255;53.596;9.960;2022-07-12T03:40:15;102263.44;;;13.31;nan
14343;BME280;7255;53.596;9.960;2022-07-12T03:42:43;102266.75;;;13.33;nan
14343;BME280;7255;53.596;9.960;2022-07-12T03:45:11;102272.19;;;13.46;nan
14343;BME280;7255;53.596;9.960;2022-07-12T03:47:38;102260.97;;;13.36;nan
14343;BME280;7255;53.596;9.960;2022-07-12T03:50:05;102268.03;;;13.44;nan
14343;BME280;7255;53.596;9.960;2022-07-12T03:52:33;102266.38;;;13.50;nan
14343;BME280;7255;53.596;9.960;2022-07-12T03:54:59;102262.62;;;13.44;nan
14343;BME280;7255;53.596;9.960;2022-07-12T03:57:28;102266.97;;;13.38;nan
14343;BME280;7255;53.596;9.960;2022-07-12T03:59:55;102273.47;;;13.57;nan
14343;BME280;7255;53.596;9.960;2022-07-12T04:02:22;102271.38;;;13.53;nan
14343;BME280;7255;53.596;9.960;2022-07-12T04:04:48;102269.28;;;13.48;nan
14343;BME280;7255;53.596;9.960;2022-07-12T04:07:15;102275.09;;;13.78;nan
14343;BME280;7255;53.596;9.960;2022-07-12T04:09:41;102273.87;;;13.74;nan
14343;BME280;7255;53.596;9.960;2022-07-12T04:12:08;102262.66;;;13.71;nan
14343;BME280;7255;53.596;9.960;2022-07-12T04:14:36;102261.41;;;13.80;nan
14343;BME280;7255;53.596;9.960;2022-07-12T04:17:04;102262.59;;;13.97;nan
14343;BME280;7255;53.596;9.960;2022-07-12T04:19:31;102268.44;;;14.08;nan
14343;BME280;7255;53.596;9.960;2022-07-12T04:21:57;102261.75;;;14.10;nan
14343;BME280;7255;53.596;9.960;2022-07-12T04:24:24;102264.28;;;14.05;nan
14343;BME280;7255;53.596;9.960;2022-07-12T04:26:51;102271.75;;;14.16;nan
14343;BME280;7255;53.596;9.960;2022-07-12T04:29:17;102263.38;;;14.38;nan
14343;BME280;7255;53.596;9.960;2022-07-12T04:31:45;102264.97;;;14.66;nan
14343;BME280;7255;53.596;9.960;2022-07-12T04:34:12;102264.09;;;14.78;nan
14343;BME280;7255;53.596;9.960;2022-07-12T04:36:42;102264.31;;;15.09;nan
14343;BME280;7255;53.596;9.960;2022-07-12T04:39:08;102268.25;;;15.45;nan
14343;BME280;7255;53.596;9.960;2022-07-12T04:41:34;102271.56;;;15.47;nan
14343;BME280;7255;53.596;9.960;2022-07-12T04:44:02;102271.47;;;15.60;nan
14343;BME280;7255;53.596;9.960;2022-07-12T04:46:28;102270.72;;;15.71;nan
14343;BME280;7255;53.596;9.960;2022-07-12T04:48:56;102268.44;;;15.75;nan
14343;BME280;7255;53.596;9.960;2022-07-12T04:51:22;102264.69;;;15.76;nan
14343;BME280;7255;53.596;9.960;2022-07-12T04:53:49;102268.25;;;15.95;nan
14343;BME280;7255;53.596;9.960;2022-07-12T04:56:15;102277.47;;;15.94;nan
14343;BME280;7255;53.596;9.960;2022-07-12T04:58:41;102269.03;;;16.02;nan
14343;BME280;7255;53.596;9.960;2022-07-12T05:01:08;102264.22;;;16.23;nan
14343;BME280;7255;53.596;9.960;2022-07-12T05:03:34;102266.22;;;16.34;nan
14343;BME280;7255;53.596;9.960;2022-07-12T05:06:01;102271.47;;;16.47;nan
14343;BME280;7255;53.596;9.960;2022-07-12T05:08:28;102280.59;;;16.53;nan
14343;BME280;7255;53.596;9.960;2022-07-12T05:10:54;102273.25;;;16.72;nan
14343;BME280;7255;53.596;9.960;2022-07-12T05:13:21;102290.47;;;16.66;nan
14343;BME280;7255;53.596;9.960;2022-07-12T05:15:47;102290.09;;;16.62;nan
14343;BME280;7255;53.596;9.960;2022-07-12T05:18:13;102294.31;;;16.58;nan
14343;BME280;7255;53.596;9.960;2022-07-12T05:20:40;102292.72;;;16.87;nan
14343;BME280;7255;53.596;9.960;2022-07-12T05:23:08;102292.91;;;17.04;nan
14343;BME280;7255;53.596;9.960;2022-07-12T05:25:34;102296.38;;;17.11;nan
14343;BME280;7255;53.596;9.960;2022-07-12T05:28:00;102305.97;;;16.96;nan
14343;BME280;7255;53.596;9.960;2022-07-12T05:30:26;102300.84;;;17.06;nan
14343;BME280;7255;53.596;9.960;2022-07-12T05:32:53;102302.31;;;17.20;nan
14343;BME280;7255;53.596;9.960;2022-07-12T05:35:19;102293.09;;;17.21;nan
14343;BME280;7255;53.596;9.960;2022-07-12T05:37:45;102297.31;;;17.17;nan
14343;BME280;7255;53.596;9.960;2022-07-12T05:40:13;102307.63;;;17.27;nan
14343;BME280;7255;53.596;9.960;2022-07-12T05:42:39;102302.78;;;17.29;nan
14343;BME280;7255;53.596;9.960;2022-07-12T05:45:06;102308.94;;;17.24;nan
14343;BME280;7255;53.596;9.960;2022-07-12T05:47:33;102310.28;;;17.45;nan
14343;BME280;7255;53.596;9.960;2022-07-12T05:49:59;102319.06;;;17.71;nan
14343;BME280;7255;53.596;9.960;2022-07-12T05:52:26;102308.06;;;17.54;nan
14343;BME280;7255;53.596;9.960;2022-07-12T05:55:09;102318.88;;;17.84;nan
14343;BME280;7255;53.596;9.960;2022-07-12T05:57:37;102308.88;;;17.55;nan
14343;BME280;7255;53.596;9.960;2022-07-12T06:00:05;102307.97;;;17.61;nan
14343;BME280;7255;53.596;9.960;2022-07-12T06:02:32;102308.47;;;17.81;nan
14343;BME280;7255;53.596;9.960;2022-07-12T06:04:59;102312.44;;;17.67;nan
14343;BME280;7255;53.596;9.960;2022-07-12T06:07:25;102309.31;;;18.05;nan
14343;BME280;7255;53.596;9.960;2022-07-12T06:09:51;102301.03;;;18.00;nan
14343;BME280;7255;53.596;9.960;2022-07-12T06:12:18;102311.44;;;18.03;nan
14343;BME280;7255;53.596;9.960;2022-07-12T06:14:45;102304.03;;;17.45;nan
14343;BME280;7255;53.596;9.960;2022-07-12T06:17:13;102301.81;;;17.54;nan
14343;BME280;7255;53.596;9.960;2022-07-12T06:19:39;102296.72;;;17.57;nan
14343;BME280;7255;53.596;9.960;2022-07-12T06:22:06;102300.25;;;17.46;nan
14343;BME280;7255;53.596;9.960;2022-07-12T06:24:32;102305.09;;;17.86;nan
14343;BME280;7255;53.596;9.960;2022-07-12T06:26:58;102315.94;;;18.09;nan
14343;BME280;7255;53.596;9.960;2022-07-12T06:29:25;102313.06;;;18.52;nan
14343;BME280;7255;53.596;9.960;2022-07-12T06:31:52;102311.09;;;18.00;nan
14343;BME280;7255;53.596;9.960;2022-07-12T06:34:19;102320.69;;;18.02;nan
14343;BME280;7255;53.596;9.960;2022-07-12T06:36:45;102311.75;;;17.72;nan
14343;BME280;7255;53.596;9.960;2022-07-12T06:39:11;102319.28;;;18.12;nan
14343;BME280;7255;53.596;9.960;2022-07-12T06:41:37;102323.28;;;17.97;nan
14343;BME280;7255;53.596;9.960;2022-07-12T06:44:04;102319.97;;;18.19;nan
14343;BME280;7255;53.596;9.960;2022-07-12T06:46:30;102321.25;;;18.16;nan
14343;BME280;7255;53.596;9.960;2022-07-12T06:48:58;102326.34;;;18.36;nan
14343;BME280;7255;53.596;9.960;2022-07-12T06:51:24;102322.72;;;18.71;nan
14343;BME280;7255;53.596;9.960;2022-07-12T06:53:51;102318.22;;;18.89;nan
14343;BME280;7255;53.596;9.960;2022-07-12T06:56:17;102310.88;;;18.89;nan
14343;BME280;7255;53.596;9.960;2022-07-12T06:58:43;102325.03;;;18.39;nan
14343;BME280;7255;53.596;9.960;2022-07-12T07:01:10;102324.41;;;18.72;nan
14343;BME280;7255;53.596;9.960;2022-07-12T07:03:36;102310.72;;;19.24;nan
14343;BME280;7255;53.596;9.960;2022-07-12T07:06:04;102303.84;;;19.68;nan
14343;BME280;7255;53.596;9.960;2022-07-12T07:08:31;102319.22;;;19.91;nan
14343;BME280;7255;53.596;9.960;2022-07-12T07:10:57;102324.50;;;19.97;nan
14343;BME280;7255;53.596;9.960;2022-07-12T07:13:23;102325.50;;;19.91;nan
14343;BME280;7255;53.596;9.960;2022-07-12T07:15:50;102326.28;;;20.26;nan
14343;BME280;7255;53.596;9.960;2022-07-12T07:18:16;102323.97;;;20.17;nan
14343;BME280;7255;53.596;9.960;2022-07-12T07:20:42;102322.97;;;20.24;nan
14343;BME280;7255;53.596;9.960;2022-07-12T07:23:10;102305.97;;;20.38;nan
14343;BME280;7255;53.596;9.960;2022-07-12T07:25:39;102320.19;;;20.02;nan
14343;BME280;7255;53.596;9.960;2022-07-12T07:28:05;102300.31;;;20.23;nan
14343;BME280;7255;53.596;9.960;2022-07-12T07:30:31;102298.09;;;20.42;nan
14343;BME280;7255;53.596;9.960;2022-07-12T07:33:15;102297.78;;;20.38;nan
14343;BME280;7255;53.596;9.960;2022-07-12T07:35:41;102304.25;;;20.32;nan
14343;BME280;7255;53.596;9.960;2022-07-12T07:38:10;102307.31;;;20.58;nan
14343;BME280;7255;53.596;9.960;2022-07-12T07:40:36;102306.62;;;20.46;nan
14343;BME280;7255;53.596;9.960;2022-07-12T07:43:03;102308.59;;;20.28;nan
14343;BME280;7255;53.596;9.960;2022-07-12T07:45:29;102316.75;;;20.67;nan
14343;BME280;7255;53.596;9.960;2022-07-12T07:47:56;102318.72;;;20.33;nan
14343;BME280;7255;53.596;9.960;2022-07-12T07:50:22;102323.59;;;20.48;nan
14343;BME280;7255;53.596;9.960;2022-07-12T07:52:48;102321.56;;;20.60;nan
14343;BME280;7255;53.596;9.960;2022-07-12T07:55:17;102321.41;;;20.67;nan
14343;BME280;7255;53.596;9.960;2022-07-12T07:57:44;102337.59;;;20.73;nan
14343;BME280;7255;53.596;9.960;2022-07-12T08:00:12;102321.72;;;20.70;nan
14343;BME280;7255;53.596;9.960;2022-07-12T08:02:39;102330.00;;;20.58;nan
14343;BME280;7255;53.596;9.960;2022-07-12T08:05:06;102329.66;;;20.55;nan
14343;BME280;7255;53.596;9.960;2022-07-12T08:07:33;102332.84;;;20.08;nan
14343;BME280;7255;53.596;9.960;2022-07-12T08:09:59;102317.06;;;20.10;nan
14343;BME280;7255;53.596;9.960;2022-07-12T08:12:27;102319.00;;;20.31;nan
14343;BME280;7255;53.596;9.960;2022-07-12T08:14:53;102316.97;;;20.44;nan
14343;BME280;7255;53.596;9.960;2022-07-12T08:17:19;102323.28;;;20.27;nan
14343;BME280;7255;53.596;9.960;2022-07-12T08:19:45;102324.13;;;20.67;nan
14343;BME280;7255;53.596;9.960;2022-07-12T08:22:12;102322.09;;;20.40;nan
14343;BME280;7255;53.596;9.960;2022-07-12T08:24:38;102328.09;;;20.20;nan
14343;BME280;7255;53.596;9.960;2022-07-12T08:27:04;102338.69;;;20.33;nan
14343;BME280;7255;53.596;9.960;2022-07-12T08:29:32;102331.84;;;20.97;nan
14343;BME280;7255;53.596;9.960;2022-07-12T08:31:58;102338.06;;;21.14;nan
14343;BME280;7255;53.596;9.960;2022-07-12T08:34:25;102340.31;;;21.23;nan
14343;BME280;7255;53.596;9.960;2022-07-12T08:36:51;102338.69;;;21.22;nan
14343;BME280;7255;53.596;9.960;2022-07-12T08:39:17;102345.66;;;20.63;nan
14343;BME280;7255;53.596;9.960;2022-07-12T08:41:44;102334.28;;;20.71;nan
14343;BME280;7255;53.596;9.960;2022-07-12T08:44:10;102329.66;;;20.72;nan
14343;BME280;7255;53.596;9.960;2022-07-12T08:46:38;102329.00;;;21.36;nan
14343;BME280;7255;53.596;9.960;2022-07-12T08:49:05;102333.81;;;21.83;nan
14343;BME280;7255;53.596;9.960;2022-07-12T08:51:32;102333.47;;;22.17;nan
14343;BME280;7255;53.596;9.960;2022-07-12T08:54:06;102323.53;;;21.09;nan
14343;BME280;7255;53.596;9.960;2022-07-12T08:56:34;102322.47;;;21.15;nan
14343;BME280;7255;53.596;9.960;2022-07-12T08:59:10;102325.47;;;21.41;nan
14343;BME280;7255;53.596;9.960;2022-07-12T09:01:42;102321.13;;;20.90;nan
14343;BME280;7255;53.596;9.960;2022-07-12T09:04:09;102319.41;;;20.62;nan
14343;BME280;7255;53.596;9.960;2022-07-12T09:06:36;102313.91;;;20.79;nan
14343;BME280;7255;53.596;9.960;2022-07-12T09:09:02;102318.25;;;21.02;nan
14343;BME280;7255;53.596;9.960;2022-07-12T09:11:28;102321.94;;;20.47;nan
14343;BME280;7255;53.596;9.960;2022-07-12T09:13:55;102314.94;;;20.56;nan
14343;BME280;7255;53.596;9.960;2022-07-12T09:16:25;102326.38;;;20.53;nan
14343;BME280;7255;53.596;9.960;2022-07-12T09:19:12;102328.41;;;20.41;nan
14343;BME280;7255;53.596;9.960;2022-07-12T09:21:46;102330.25;;;20.18;nan
14343;BME280;7255;53.596;9.960;2022-07-12T09:24:13;102326.38;;;20.53;nan
14343;BME280;7255;53.596;9.960;2022-07-12T09:26:39;102319.16;;;20.86;nan
14343;BME280;7255;53.596;9.960;2022-07-12T09:29:06;102317.16;;;20.37;nan
14343;BME280;7255;53.596;9.960;2022-07-12T09:31:39;102318.44;;;20.51;nan
14343;BME280;7255;53.596;9.960;2022-07-12T09:34:07;102319.44;;;20.45;nan
14343;BME280;7255;53.596;9.960;2022-07-12T09:36:55;102320.59;;;20.49;nan
14343;BME280;7255;53.596;9.960;2022-07-12T09:39:22;102314.44;;;20.37;nan
14343;BME280;7255;53.596;9.960;2022-07-12T09:41:51;102308.03;;;20.48;nan
14343;BME280;7255;53.596;9.960;2022-07-12T09:44:18;102313.56;;;20.53;nan
14343;BME280;7255;53.596;9.960;2022-07-12T09:46:46;102315.66;;;20.46;nan
14343;BME280;7255;53.596;9.960;2022-07-12T09:49:14;102319.34;;;20.57;nan
14343;BME280;7255;53.596;9.960;2022-07-12T09:51:42;102313.56;;;20.31;nan
14343;BME280;7255;53.596;9.960;2022-07-12T09:54:11;102311.00;;;20.47;nan
14343;BME280;7255;53.596;9.960;2022-07-12T09:56:42;102319.06;;;20.75;nan
14343;BME280;7255;53.596;9.960;2022-07-12T09:59:13;102312.28;;;21.05;nan
14343;BME280;7255;53.596;9.960;2022-07-12T10:01:40;102311.66;;;20.98;nan
14343;BME280;7255;53.596;9.960;2022-07-12T10:04:07;102305.84;;;20.67;nan
14343;BME280;7255;53.596;9.960;2022-07-12T10:06:35;102316.88;;;20.77;nan
14343;BME280;7255;53.596;9.960;2022-07-12T10:09:03;102308.56;;;21.17;nan
14343;BME280;7255;53.596;9.960;2022-07-12T10:11:31;102297.94;;;21.20;nan
14343;BME280;7255;53.596;9.960;2022-07-12T10:13:58;102290.63;;;21.26;nan
14343;BME280;7255;53.596;9.960;2022-07-12T10:16:25;102300.13;;;21.45;nan
14343;BME280;7255;53.596;9.960;2022-07-12T10:19:26;102303.22;;;21.91;nan
14343;BME280;7255;53.596;9.960;2022-07-12T10:21:56;102303.88;;;21.71;nan
14343;BME280;7255;53.596;9.960;2022-07-12T10:24:50;102304.84;;;21.55;nan
14343;BME280;7255;53.596;9.960;2022-07-12T10:27:31;102301.00;;;21.88;nan
14343;BME280;7255;53.596;9.960;2022-07-12T10:30:18;102310.12;;;22.47;nan
14343;BME280;7255;53.596;9.960;2022-07-12T10:32:46;102309.91;;;22.16;nan
14343;BME280;7255;53.596;9.960;2022-07-12T10:35:16;102307.47;;;22.15;nan
14343;BME280;7255;53.596;9.960;2022-07-12T10:38:15;102308.78;;;22.60;nan
14343;BME280;7255;53.596;9.960;2022-07-12T10:40:44;102303.12;;;22.77;nan
14343;BME280;7255;53.596;9.960;2022-07-12T10:43:28;102297.94;;;22.91;nan
14343;BME280;7255;53.596;9.960;2022-07-12T10:46:22;102299.12;;;22.37;nan
14343;BME280;7255;53.596;9.960;2022-07-12T10:48:50;102298.09;;;22.53;nan
14343;BME280;7255;53.596;9.960;2022-07-12T10:51:18;102306.44;;;22.89;nan
14343;BME280;7255;53.596;9.960;2022-07-12T10:53:47;102293.66;;;23.10;nan
14343;BME280;7255;53.596;9.960;2022-07-12T10:56:17;102288.41;;;23.19;nan
14343;BME280;7255;53.596;9.960;2022-07-12T10:58:45;102286.50;;;23.14;nan
14343;BME280;7255;53.596;9.960;2022-07-12T11:01:14;102285.44;;;23.31;nan
14343;BME280;7255;53.596;9.960;2022-07-12T11:03:44;102289.53;;;23.64;nan
14343;BME280;7255;53.596;9.960;2022-07-12T11:06:12;102282.97;;;23.60;nan
14343;BME280;7255;53.596;9.960;2022-07-12T11:08:57;102291.47;;;23.38;nan
14343;BME280;7255;53.596;9.960;2022-07-12T11:11:26;102291.44;;;23.79;nan
14343;BME280;7255;53.596;9.960;2022-07-12T11:13:53;102281.50;;;24.24;nan
14343;BME280;7255;53.596;9.960;2022-07-12T11:16:21;102279.69;;;23.89;nan
14343;BME280;7255;53.596;9.960;2022-07-12T11:18:49;102269.97;;;24.17;nan
14343;BME280;7255;53.596;9.960;2022-07-12T11:21:15;102268.47;;;24.61;nan
14343;BME280;7255;53.596;9.960;2022-07-12T11:23:42;102256.59;;;24.70;nan
14343;BME280;7255;53.596;9.960;2022-07-12T11:26:11;102264.13;;;24.39;nan
14343;BME280;7255;53.596;9.960;2022-07-12T11:28:39;102262.53;;;24.28;nan
14343;BME280;7255;53.596;9.960;2022-07-12T11:31:07;102267.13;;;24.53;nan
14343;BME280;7255;53.596;9.960;2022-07-12T11:33:36;102257.88;;;24.23;nan
14343;BME280;7255;53.596;9.960;2022-07-12T11:36:04;102257.28;;;24.36;nan
14343;BME280;7255;53.596;9.960;2022-07-12T11:38:31;102252.72;;;24.06;nan
14343;BME280;7255;53.596;9.960;2022-07-12T11:40:59;102260.06;;;24.26;nan
14343;BME280;7255;53.596;9.960;2022-07-12T11:43:27;102243.72;;;24.66;nan
14343;BME280;7255;53.596;9.960;2022-07-12T11:45:54;102253.19;;;25.23;nan
14343;BME280;7255;53.596;9.960;2022-07-12T11:48:22;102251.94;;;25.45;nan
14343;BME280;7255;53.596;9.960;2022-07-12T11:50:50;102242.16;;;25.33;nan
14343;BME280;7255;53.596;9.960;2022-07-12T11:53:19;102236.59;;;24.59;nan
14343;BME280;7255;53.596;9.960;2022-07-12T11:55:47;102248.62;;;24.69;nan
14343;BME280;7255;53.596;9.960;2022-07-12T11:58:15;102241.59;;;24.92;nan
14343;BME280;7255;53.596;9.960;2022-07-12T12:00:43;102238.62;;;25.28;nan
14343;BME280;7255;53.596;9.960;2022-07-12T12:03:10;102236.06;;;25.36;nan
14343;BME280;7255;53.596;9.960;2022-07-12T12:05:37;102239.56;;;25.42;nan
14343;BME280;7255;53.596;9.960;2022-07-12T12:08:04;102245.66;;;25.05;nan
14343;BME280;7255;53.596;9.960;2022-07-12T12:10:30;102240.19;;;25.39;nan
14343;BME280;7255;53.596;9.960;2022-07-12T12:12:58;102243.44;;;25.70;nan
14343;BME280;7255;53.596;9.960;2022-07-12T12:15:26;102239.09;;;26.18;nan
14343;BME280;7255;53.596;9.960;2022-07-12T12:17:55;102247.97;;;26.34;nan
14343;BME280;7255;53.596;9.960;2022-07-12T12:20:23;102249.00;;;25.65;nan
14343;BME280;7255;53.596;9.960;2022-07-12T12:22:51;102251.59;;;25.81;nan
14343;BME280;7255;53.596;9.960;2022-07-12T12:25:19;102247.53;;;26.02;nan
14343;BME280;7255;53.596;9.960;2022-07-12T12:27:47;102242.47;;;26.34;nan
14343;BME280;7255;53.596;9.960;2022-07-12T12:30:14;102238.09;;;26.51;nan
14343;BME280;7255;53.596;9.960;2022-07-12T12:32:44;102234.13;;;26.20;nan
14343;BME280;7255;53.596;9.960;2022-07-12T12:35:12;102240.47;;;25.67;nan
14343;BME280;7255;53.596;9.960;2022-07-12T12:37:39;102237.81;;;25.81;nan
14343;BME280;7255;53.596;9.960;2022-07-12T12:40:07;102235.78;;;26.40;nan
14343;BME280;7255;53.596;9.960;2022-07-12T12:42:33;102237.13;;;25.99;nan
14343;BME280;7255;53.596;9.960;2022-07-12T12:44:59;102228.16;;;25.59;nan
14343;BME280;7255;53.596;9.960;2022-07-12T12:47:26;102221.78;;;25.34;nan
14343;BME280;7255;53.596;9.960;2022-07-12T12:49:59;102226.37;;;26.22;nan
14343;BME280;7255;53.596;9.960;2022-07-12T12:52:28;102234.00;;;26.49;nan
14343;BME280;7255;53.596;9.960;2022-07-12T12:54:56;102232.81;;;26.36;nan
14343;BME280;7255;53.596;9.960;2022-07-12T12:57:24;102229.84;;;26.08;nan
14343;BME280;7255;53.596;9.960;2022-07-12T12:59:51;102234.25;;;26.53;nan
14343;BME280;7255;53.596;9.960;2022-07-12T13:02:17;102225.78;;;26.68;nan
14343;BME280;7255;53.596;9.960;2022-07-12T13:04:45;102234.81;;;26.06;nan
14343;BME280;7255;53.596;9.960;2022-07-12T13:07:11;102220.91;;;25.68;nan
14343;BME280;7255;53.596;9.960;2022-07-12T13:09:39;102227.06;;;26.51;nan
14343;BME280;7255;53.596;9.960;2022-07-12T13:12:06;102221.72;;;26.41;nan
14343;BME280;7255;53.596;9.960;2022-07-12T13:14:33;102224.97;;;26.67;nan
14343;BME280;7255;53.596;9.960;2022-07-12T13:17:00;102220.13;;;26.78;nan
14343;BME280;7255;53.596;9.960;2022-07-12T13:19:26;102217.81;;;27.18;nan
14343;BME280;7255;53.596;9.960;2022-07-12T13:21:52;102212.31;;;27.18;nan
14343;BME280;7255;53.596;9.960;2022-07-12T13:24:19;102210.91;;;27.02;nan
14343;BME280;7255;53.596;9.960;2022-07-12T13:26:47;102210.66;;;26.65;nan